sensor_id;sensor_type;location;lat;lon;timestamp;temperature;humidity
72772;SHT30;60894;42.544;1.516;2022-12-07T00:01:27;4.06;79.51
72772;SHT30;60894;42.544;1.516;2022-12-07T00:03:55;3.96;79.95
72772;SHT30;60894;42.544;1.516;2022-12-07T00:06:27;3.88;80.16
72772;SHT30;60894;42.544;1.516;2022-12-07T00:08:54;3.82;80.37
72772;SHT30;60894;42.544;1.516;2022-12-07T00:11:22;3.78;80.69
72772;SHT30;60894;42.544;1.516;2022-12-07T00:13:52;3.81;80.78
72772;SHT30;60894;42.544;1.516;2022-12-07T00:16:21;3.82;80.43
72772;SHT30;60894;42.544;1.516;2022-12-07T00:18:48;3.79;80.92
72772;SHT30;60894;42.544;1.516;2022-12-07T00:21:17;3.82;81.02
72772;SHT30;60894;42.544;1.516;2022-12-07T00:23:47;3.79;80.75
72772;SHT30;60894;42.544;1.516;2022-12-07T00:26:16;3.67;80.61
72772;SHT30;60894;42.544;1.516;2022-12-07T00:28:45;3.68;81.12
72772;SHT30;60894;42.544;1.516;2022-12-07T00:31:13;3.61;80.77
72772;SHT30;60894;42.544;1.516;2022-12-07T00:33:41;3.54;81.02
72772;SHT30;60894;42.544;1.516;2022-12-07T00:36:10;3.51;80.34
72772;SHT30;60894;42.544;1.516;2022-12-07T00:38:38;3.50;80.87
72772;SHT30;60894;42.544;1.516;2022-12-07T00:41:10;3.48;81.11
72772;SHT30;60894;42.544;1.516;2022-12-07T00:43:37;3.40;80.79
72772;SHT30;60894;42.544;1.516;2022-12-07T00:46:04;3.43;80.97
72772;SHT30;60894;42.544;1.516;2022-12-07T00:48:31;3.33;81.26
72772;SHT30;60894;42.544;1.516;2022-12-07T00:50:59;3.30;81.51
72772;SHT30;60894;42.544;1.516;2022-12-07T00:53:26;3.38;80.66
72772;SHT30;60894;42.544;1.516;2022-12-07T00:55:53;3.38;80.20
72772;SHT30;60894;42.544;1.516;2022-12-07T00:58:23;3.44;80.00
72772;SHT30;60894;42.544;1.516;2022-12-07T01:00:50;3.35;80.04
72772;SHT30;60894;42.544;1.516;2022-12-07T01:03:17;3.35;80.20
72772;SHT30;60894;42.544;1.516;2022-12-07T01:05:51;3.27;80.56
72772;SHT30;60894;42.544;1.516;2022-12-07T01:08:18;3.28;80.13
72772;SHT30;60894;42.544;1.516;2022-12-07T01:10:45;3.21;79.72
72772;SHT30;60894;42.544;1.516;2022-12-07T01:13:12;3.16;80.14
72772;SHT30;60894;42.544;1.516;2022-12-07T01:15:41;3.19;80.27
72772;SHT30;60894;42.544;1.516;2022-12-07T01:18:08;3.24;79.85
72772;SHT30;60894;42.544;1.516;2022-12-07T01:20:36;3.27;79.87
72772;SHT30;60894;42.544;1.516;2022-12-07T01:23:03;3.24;79.75
72772;SHT30;60894;42.544;1.516;2022-12-07T01:25:30;3.34;79.38
72772;SHT30;60894;42.544;1.516;2022-12-07T01:27:57;3.38;79.63
72772;SHT30;60894;42.544;1.516;2022-12-07T01:30:24;3.30;79.49
72772;SHT30;60894;42.544;1.516;2022-12-07T01:32:53;3.30;79.60
72772;SHT30;60894;42.544;1.516;2022-12-07T01:35:20;3.26;80.22
72772;SHT30;60894;42.544;1.516;2022-12-07T01:37:46;3.06;80.41
72772;SHT30;60894;42.544;1.516;2022-12-07T01:40:13;3.00;80.31
72772;SHT30;60894;42.544;1.516;2022-12-07T01:42:40;2.96;80.49
72772;SHT30;60894;42.544;1.516;2022-12-07T01:45:37;2.99;80.84
72772;SHT30;60894;42.544;1.516;2022-12-07T01:48:07;2.93;80.88
72772;SHT30;60894;42.544;1.516;2022-12-07T01:50:37;2.92;81.25
72772;SHT30;60894;42.544;1.516;2022-12-07T01:53:06;2.90;80.59
72772;SHT30;60894;42.544;1.516;2022-12-07T01:55:38;2.89;80.74
72772;SHT30;60894;42.544;1.516;2022-12-07T01:58:09;2.95;80.03
72772;SHT30;60894;42.544;1.516;2022-12-07T02:00:37;2.92;80.08
72772;SHT30;60894;42.544;1.516;2022-12-07T02:03:08;2.92;80.33
72772;SHT30;60894;42.544;1.516;2022-12-07T02:05:38;2.95;80.52
72772;SHT30;60894;42.544;1.516;2022-12-07T02:08:07;2.88;80.43
72772;SHT30;60894;42.544;1.516;2022-12-07T02:10:35;2.81;80.41
72772;SHT30;60894;42.544;1.516;2022-12-07T02:13:05;2.75;80.02
72772;SHT30;60894;42.544;1.516;2022-12-07T02:15:41;2.73;80.30
72772;SHT30;60894;42.544;1.516;2022-12-07T02:18:17;2.66;80.57
72772;SHT30;60894;42.544;1.516;2022-12-07T02:20:50;2.66;80.40
72772;SHT30;60894;42.544;1.516;2022-12-07T02:23:38;2.71;80.51
72772;SHT30;60894;42.544;1.516;2022-12-07T02:26:38;2.78;80.45
72772;SHT30;60894;42.544;1.516;2022-12-07T02:29:16;2.75;80.48
72772;SHT30;60894;42.544;1.516;2022-12-07T02:31:51;2.66;80.68
72772;SHT30;60894;42.544;1.516;2022-12-07T02:34:26;2.61;80.56
72772;SHT30;60894;42.544;1.516;2022-12-07T02:36:57;2.58;80.39
72772;SHT30;60894;42.544;1.516;2022-12-07T02:39:31;2.58;80.84
72772;SHT30;60894;42.544;1.516;2022-12-07T02:42:03;2.62;80.88
72772;SHT30;60894;42.544;1.516;2022-12-07T02:44:34;2.52;81.66
72772;SHT30;60894;42.544;1.516;2022-12-07T02:47:03;2.51;81.46
72772;SHT30;60894;42.544;1.516;2022-12-07T02:49:31;2.49;81.59
72772;SHT30;60894;42.544;1.516;2022-12-07T02:51:58;2.46;80.79
72772;SHT30;60894;42.544;1.516;2022-12-07T02:54:26;2.48;80.85
72772;SHT30;60894;42.544;1.516;2022-12-07T02:56:57;2.49;80.50
72772;SHT30;60894;42.544;1.516;2022-12-07T02:59:36;2.53;80.78
72772;SHT30;60894;42.544;1.516;2022-12-07T03:02:17;2.52;80.60
72772;SHT30;60894;42.544;1.516;2022-12-07T03:04:54;2.51;80.92
72772;SHT30;60894;42.544;1.516;2022-12-07T03:07:29;2.46;81.19
72772;SHT30;60894;42.544;1.516;2022-12-07T03:10:03;2.41;80.74
72772;SHT30;60894;42.544;1.516;2022-12-07T03:12:34;2.45;80.88
72772;SHT30;60894;42.544;1.516;2022-12-07T03:15:07;2.46;81.01
72772;SHT30;60894;42.544;1.516;2022-12-07T03:17:38;2.35;81.08
72772;SHT30;60894;42.544;1.516;2022-12-07T03:20:10;2.34;81.75
72772;SHT30;60894;42.544;1.516;2022-12-07T03:22:40;2.30;81.64
72772;SHT30;60894;42.544;1.516;2022-12-07T03:25:09;2.27;80.97
72772;SHT30;60894;42.544;1.516;2022-12-07T03:27:39;2.22;81.06
72772;SHT30;60894;42.544;1.516;2022-12-07T03:30:12;2.27;80.75
72772;SHT30;60894;42.544;1.516;2022-12-07T03:32:43;2.27;80.71
72772;SHT30;60894;42.544;1.516;2022-12-07T03:35:14;2.31;80.45
72772;SHT30;60894;42.544;1.516;2022-12-07T03:37:48;2.30;80.69
72772;SHT30;60894;42.544;1.516;2022-12-07T03:40:21;2.30;81.28
72772;SHT30;60894;42.544;1.516;2022-12-07T03:42:50;2.38;81.10
72772;SHT30;60894;42.544;1.516;2022-12-07T03:45:23;2.27;81.31
72772;SHT30;60894;42.544;1.516;2022-12-07T03:47:59;2.21;81.79
72772;SHT30;60894;42.544;1.516;2022-12-07T03:50:31;2.21;81.37
72772;SHT30;60894;42.544;1.516;2022-12-07T03:53:05;2.18;80.77
72772;SHT30;60894;42.544;1.516;2022-12-07T03:55:37;2.09;80.94
72772;SHT30;60894;42.544;1.516;2022-12-07T03:58:08;2.14;81.14
72772;SHT30;60894;42.544;1.516;2022-12-07T04:00:37;2.17;81.16
72772;SHT30;60894;42.544;1.516;2022-12-07T04:03:04;2.11;81.93
72772;SHT30;60894;42.544;1.516;2022-12-07T04:05:31;2.17;81.88
72772;SHT30;60894;42.544;1.516;2022-12-07T04:07:58;2.17;81.23
72772;SHT30;60894;42.544;1.516;2022-12-07T04:10:25;2.11;81.04
72772;SHT30;60894;42.544;1.516;2022-12-07T04:12:52;2.17;81.09
72772;SHT30;60894;42.544;1.516;2022-12-07T04:15:19;2.15;81.55
72772;SHT30;60894;42.544;1.516;2022-12-07T04:17:48;2.22;81.44
72772;SHT30;60894;42.544;1.516;2022-12-07T04:20:15;2.17;81.58
72772;SHT30;60894;42.544;1.516;2022-12-07T04:22:42;2.14;81.28
72772;SHT30;60894;42.544;1.516;2022-12-07T04:25:09;2.11;81.06
72772;SHT30;60894;42.544;1.516;2022-12-07T04:27:36;2.10;81.05
72772;SHT30;60894;42.544;1.516;2022-12-07T04:30:04;2.01;81.54
72772;SHT30;60894;42.544;1.516;2022-12-07T04:32:31;2.01;81.65
72772;SHT30;60894;42.544;1.516;2022-12-07T04:34:59;2.11;81.53
72772;SHT30;60894;42.544;1.516;2022-12-07T04:37:26;2.09;81.39
72772;SHT30;60894;42.544;1.516;2022-12-07T04:39:53;2.00;81.17
72772;SHT30;60894;42.544;1.516;2022-12-07T04:42:20;1.94;81.13
72772;SHT30;60894;42.544;1.516;2022-12-07T04:44:47;1.94;80.56
72772;SHT30;60894;42.544;1.516;2022-12-07T04:47:14;1.96;80.64
72772;SHT30;60894;42.544;1.516;2022-12-07T04:49:41;1.96;80.94
72772;SHT30;60894;42.544;1.516;2022-12-07T04:52:09;1.96;81.03
72772;SHT30;60894;42.544;1.516;2022-12-07T04:54:36;1.89;81.76
72772;SHT30;60894;42.544;1.516;2022-12-07T04:57:03;1.93;81.37
72772;SHT30;60894;42.544;1.516;2022-12-07T04:59:30;1.97;81.61
72772;SHT30;60894;42.544;1.516;2022-12-07T05:01:57;1.97;82.19
72772;SHT30;60894;42.544;1.516;2022-12-07T05:04:24;1.93;82.12
72772;SHT30;60894;42.544;1.516;2022-12-07T05:06:51;1.89;82.11
72772;SHT30;60894;42.544;1.516;2022-12-07T05:09:19;1.87;81.88
72772;SHT30;60894;42.544;1.516;2022-12-07T05:11:46;1.87;82.65
72772;SHT30;60894;42.544;1.516;2022-12-07T05:14:15;1.94;82.17
72772;SHT30;60894;42.544;1.516;2022-12-07T05:16:43;1.90;81.87
72772;SHT30;60894;42.544;1.516;2022-12-07T05:19:10;1.84;82.00
72772;SHT30;60894;42.544;1.516;2022-12-07T05:21:38;1.86;81.74
72772;SHT30;60894;42.544;1.516;2022-12-07T05:24:07;1.80;81.75
72772;SHT30;60894;42.544;1.516;2022-12-07T05:26:35;1.81;81.19
72772;SHT30;60894;42.544;1.516;2022-12-07T05:29:03;1.77;81.72
72772;SHT30;60894;42.544;1.516;2022-12-07T05:31:30;1.77;82.04
72772;SHT30;60894;42.544;1.516;2022-12-07T05:33:58;1.73;82.02
72772;SHT30;60894;42.544;1.516;2022-12-07T05:36:25;1.73;81.88
72772;SHT30;60894;42.544;1.516;2022-12-07T05:38:54;1.77;81.92
72772;SHT30;60894;42.544;1.516;2022-12-07T05:41:21;1.70;81.99
72772;SHT30;60894;42.544;1.516;2022-12-07T05:44:15;1.69;81.51
72772;SHT30;60894;42.544;1.516;2022-12-07T05:46:42;1.67;81.39
72772;SHT30;60894;42.544;1.516;2022-12-07T05:49:09;1.64;81.56
72772;SHT30;60894;42.544;1.516;2022-12-07T05:51:36;1.64;82.31
72772;SHT30;60894;42.544;1.516;2022-12-07T05:54:03;1.62;82.10
72772;SHT30;60894;42.544;1.516;2022-12-07T05:56:30;1.64;83.40
72772;SHT30;60894;42.544;1.516;2022-12-07T05:58:57;1.66;83.14
72772;SHT30;60894;42.544;1.516;2022-12-07T06:01:43;1.60;81.95
72772;SHT30;60894;42.544;1.516;2022-12-07T06:04:10;1.67;82.02
72772;SHT30;60894;42.544;1.516;2022-12-07T06:06:37;1.70;82.25
72772;SHT30;60894;42.544;1.516;2022-12-07T06:09:04;1.81;82.16
72772;SHT30;60894;42.544;1.516;2022-12-07T06:11:31;1.89;81.92
72772;SHT30;60894;42.544;1.516;2022-12-07T06:14:15;1.73;80.80
72772;SHT30;60894;42.544;1.516;2022-12-07T06:16:44;1.74;80.98
72772;SHT30;60894;42.544;1.516;2022-12-07T06:19:11;1.66;81.58
72772;SHT30;60894;42.544;1.516;2022-12-07T06:21:38;1.62;81.25
72772;SHT30;60894;42.544;1.516;2022-12-07T06:24:05;1.59;81.48
72772;SHT30;60894;42.544;1.516;2022-12-07T06:26:32;1.62;81.56
72772;SHT30;60894;42.544;1.516;2022-12-07T06:28:59;1.60;80.97
72772;SHT30;60894;42.544;1.516;2022-12-07T06:31:26;1.71;81.90
72772;SHT30;60894;42.544;1.516;2022-12-07T06:33:58;1.79;82.06
72772;SHT30;60894;42.544;1.516;2022-12-07T06:36:25;1.62;81.74
72772;SHT30;60894;42.544;1.516;2022-12-07T06:38:52;1.62;81.81
72772;SHT30;60894;42.544;1.516;2022-12-07T06:41:19;1.59;81.40
72772;SHT30;60894;42.544;1.516;2022-12-07T06:43:46;1.52;81.67
72772;SHT30;60894;42.544;1.516;2022-12-07T06:46:13;1.49;82.18
72772;SHT30;60894;42.544;1.516;2022-12-07T06:48:40;1.39;82.94
72772;SHT30;60894;42.544;1.516;2022-12-07T06:51:09;1.48;82.59
72772;SHT30;60894;42.544;1.516;2022-12-07T06:53:37;1.49;82.70
72772;SHT30;60894;42.544;1.516;2022-12-07T06:56:04;1.43;82.55
72772;SHT30;60894;42.544;1.516;2022-12-07T06:58:31;1.43;81.95
72772;SHT30;60894;42.544;1.516;2022-12-07T07:00:59;1.43;81.92
72772;SHT30;60894;42.544;1.516;2022-12-07T07:03:25;1.45;82.36
72772;SHT30;60894;42.544;1.516;2022-12-07T07:05:52;1.40;82.67
72772;SHT30;60894;42.544;1.516;2022-12-07T07:08:21;1.39;82.19
72772;SHT30;60894;42.544;1.516;2022-12-07T07:10:48;1.45;82.07
72772;SHT30;60894;42.544;1.516;2022-12-07T07:13:15;1.46;81.71
72772;SHT30;60894;42.544;1.516;2022-12-07T07:15:42;1.42;82.10
72772;SHT30;60894;42.544;1.516;2022-12-07T07:18:09;1.42;82.65
72772;SHT30;60894;42.544;1.516;2022-12-07T07:20:36;1.45;82.41
72772;SHT30;60894;42.544;1.516;2022-12-07T07:23:03;1.40;81.94
72772;SHT30;60894;42.544;1.516;2022-12-07T07:25:32;1.46;82.79
72772;SHT30;60894;42.544;1.516;2022-12-07T07:27:59;1.52;82.77
72772;SHT30;60894;42.544;1.516;2022-12-07T07:30:26;1.55;82.74
72772;SHT30;60894;42.544;1.516;2022-12-07T07:32:56;1.49;82.36
72772;SHT30;60894;42.544;1.516;2022-12-07T07:35:23;1.52;83.06
72772;SHT30;60894;42.544;1.516;2022-12-07T07:37:50;1.53;82.75
72772;SHT30;60894;42.544;1.516;2022-12-07T07:40:17;1.58;82.47
72772;SHT30;60894;42.544;1.516;2022-12-07T07:42:48;1.69;82.56
72772;SHT30;60894;42.544;1.516;2022-12-07T07:45:15;1.64;82.51
72772;SHT30;60894;42.544;1.516;2022-12-07T07:47:42;1.64;82.12
72772;SHT30;60894;42.544;1.516;2022-12-07T07:50:10;1.74;82.03
72772;SHT30;60894;42.544;1.516;2022-12-07T07:52:37;1.62;82.34
72772;SHT30;60894;42.544;1.516;2022-12-07T07:55:05;1.64;83.05
72772;SHT30;60894;42.544;1.516;2022-12-07T07:57:34;1.58;83.27
72772;SHT30;60894;42.544;1.516;2022-12-07T08:00:02;1.59;82.48
72772;SHT30;60894;42.544;1.516;2022-12-07T08:02:29;1.59;82.78
72772;SHT30;60894;42.544;1.516;2022-12-07T08:04:56;1.63;82.78
72772;SHT30;60894;42.544;1.516;2022-12-07T08:07:23;1.64;82.94
72772;SHT30;60894;42.544;1.516;2022-12-07T08:09:50;1.69;82.46
72772;SHT30;60894;42.544;1.516;2022-12-07T08:12:17;1.69;82.98
72772;SHT30;60894;42.544;1.516;2022-12-07T08:14:44;1.71;82.52
72772;SHT30;60894;42.544;1.516;2022-12-07T08:17:13;1.76;82.42
72772;SHT30;60894;42.544;1.516;2022-12-07T08:19:40;1.77;82.28
72772;SHT30;60894;42.544;1.516;2022-12-07T08:22:07;1.77;82.05
72772;SHT30;60894;42.544;1.516;2022-12-07T08:24:34;1.79;82.15
72772;SHT30;60894;42.544;1.516;2022-12-07T08:27:02;1.89;82.24
72772;SHT30;60894;42.544;1.516;2022-12-07T08:29:29;1.94;82.27
72772;SHT30;60894;42.544;1.516;2022-12-07T08:31:56;2.10;82.32
72772;SHT30;60894;42.544;1.516;2022-12-07T08:34:24;2.11;81.97
72772;SHT30;60894;42.544;1.516;2022-12-07T08:36:51;2.22;82.05
72772;SHT30;60894;42.544;1.516;2022-12-07T08:39:18;2.27;82.18
72772;SHT30;60894;42.544;1.516;2022-12-07T08:41:45;2.40;81.91
72772;SHT30;60894;42.544;1.516;2022-12-07T08:44:13;2.53;81.47
72772;SHT30;60894;42.544;1.516;2022-12-07T08:46:44;2.72;81.12
72772;SHT30;60894;42.544;1.516;2022-12-07T08:49:16;2.78;80.72
72772;SHT30;60894;42.544;1.516;2022-12-07T08:51:46;2.76;80.71
72772;SHT30;60894;42.544;1.516;2022-12-07T08:54:16;2.83;80.54
72772;SHT30;60894;42.544;1.516;2022-12-07T08:56:44;2.88;80.62
72772;SHT30;60894;42.544;1.516;2022-12-07T08:59:12;2.96;80.15
72772;SHT30;60894;42.544;1.516;2022-12-07T09:01:40;2.90;80.24
72772;SHT30;60894;42.544;1.516;2022-12-07T09:04:07;3.00;80.91
72772;SHT30;60894;42.544;1.516;2022-12-07T09:06:34;3.07;80.07
72772;SHT30;60894;42.544;1.516;2022-12-07T09:09:03;3.19;80.78
72772;SHT30;60894;42.544;1.516;2022-12-07T09:11:30;3.35;80.44
72772;SHT30;60894;42.544;1.516;2022-12-07T09:13:57;3.44;79.63
72772;SHT30;60894;42.544;1.516;2022-12-07T09:16:24;3.62;79.37
72772;SHT30;60894;42.544;1.516;2022-12-07T09:18:51;3.91;80.27
72772;SHT30;60894;42.544;1.516;2022-12-07T09:21:18;4.06;78.84
72772;SHT30;60894;42.544;1.516;2022-12-07T09:23:45;4.23;77.41
72772;SHT30;60894;42.544;1.516;2022-12-07T09:26:14;4.46;78.36
72772;SHT30;60894;42.544;1.516;2022-12-07T09:28:41;4.61;75.84
72772;SHT30;60894;42.544;1.516;2022-12-07T09:31:08;4.67;75.91
72772;SHT30;60894;42.544;1.516;2022-12-07T09:33:35;4.87;75.59
72772;SHT30;60894;42.544;1.516;2022-12-07T09:36:03;4.99;74.81
72772;SHT30;60894;42.544;1.516;2022-12-07T09:38:30;5.25;74.60
72772;SHT30;60894;42.544;1.516;2022-12-07T09:41:04;5.50;74.04
72772;SHT30;60894;42.544;1.516;2022-12-07T09:43:35;5.65;72.51
72772;SHT30;60894;42.544;1.516;2022-12-07T09:46:03;5.80;74.53
72772;SHT30;60894;42.544;1.516;2022-12-07T09:48:32;6.10;73.91
72772;SHT30;60894;42.544;1.516;2022-12-07T09:51:01;6.22;72.26
72772;SHT30;60894;42.544;1.516;2022-12-07T09:53:32;6.44;71.15
72772;SHT30;60894;42.544;1.516;2022-12-07T09:56:00;6.68;70.10
72772;SHT30;60894;42.544;1.516;2022-12-07T09:58:28;6.90;69.59
72772;SHT30;60894;42.544;1.516;2022-12-07T10:01:00;7.19;69.29
72772;SHT30;60894;42.544;1.516;2022-12-07T10:03:27;7.37;68.82
72772;SHT30;60894;42.544;1.516;2022-12-07T10:05:55;7.68;68.33
72772;SHT30;60894;42.544;1.516;2022-12-07T10:08:22;7.82;66.09
72772;SHT30;60894;42.544;1.516;2022-12-07T10:10:53;8.14;65.78
72772;SHT30;60894;42.544;1.516;2022-12-07T10:13:22;8.26;64.71
72772;SHT30;60894;42.544;1.516;2022-12-07T10:15:51;8.30;64.64
72772;SHT30;60894;42.544;1.516;2022-12-07T10:18:28;8.51;64.09
72772;SHT30;60894;42.544;1.516;2022-12-07T10:21:13;8.53;63.45
72772;SHT30;60894;42.544;1.516;2022-12-07T10:23:42;8.39;63.37
72772;SHT30;60894;42.544;1.516;2022-12-07T10:26:31;8.26;63.95
72772;SHT30;60894;42.544;1.516;2022-12-07T10:29:04;8.20;63.25
72772;SHT30;60894;42.544;1.516;2022-12-07T10:31:39;8.30;65.06
72772;SHT30;60894;42.544;1.516;2022-12-07T10:34:20;8.40;65.02
72772;SHT30;60894;42.544;1.516;2022-12-07T10:36:49;8.54;65.04
72772;SHT30;60894;42.544;1.516;2022-12-07T10:39:19;8.49;64.42
72772;SHT30;60894;42.544;1.516;2022-12-07T10:41:56;8.43;64.66
72772;SHT30;60894;42.544;1.516;2022-12-07T10:44:25;8.22;64.14
72772;SHT30;60894;42.544;1.516;2022-12-07T10:47:13;8.20;64.85
72772;SHT30;60894;42.544;1.516;2022-12-07T10:50:06;8.34;65.10
72772;SHT30;60894;42.544;1.516;2022-12-07T10:52:45;8.53;64.99
72772;SHT30;60894;42.544;1.516;2022-12-07T10:55:21;8.50;64.75
72772;SHT30;60894;42.544;1.516;2022-12-07T10:58:02;8.74;64.42
72772;SHT30;60894;42.544;1.516;2022-12-07T11:00:38;8.91;63.04
72772;SHT30;60894;42.544;1.516;2022-12-07T11:06:14;9.47;61.58
72772;SHT30;60894;42.544;1.516;2022-12-07T11:08:54;9.60;60.49
72772;SHT30;60894;42.544;1.516;2022-12-07T11:11:33;9.82;59.95
72772;SHT30;60894;42.544;1.516;2022-12-07T11:14:06;9.87;58.93
72772;SHT30;60894;42.544;1.516;2022-12-07T11:16:52;9.49;59.83
72772;SHT30;60894;42.544;1.516;2022-12-07T11:19:39;9.57;59.50
72772;SHT30;60894;42.544;1.516;2022-12-07T11:22:21;9.47;59.19
72772;SHT30;60894;42.544;1.516;2022-12-07T11:24:56;9.52;59.91
72772;SHT30;60894;42.544;1.516;2022-12-07T11:27:33;9.60;60.50
72772;SHT30;60894;42.544;1.516;2022-12-07T11:30:10;9.69;59.19
72772;SHT30;60894;42.544;1.516;2022-12-07T11:35:38;10.24;58.09
72772;SHT30;60894;42.544;1.516;2022-12-07T11:38:15;10.44;56.97
72772;SHT30;60894;42.544;1.516;2022-12-07T11:40:45;10.68;57.00
72772;SHT30;60894;42.544;1.516;2022-12-07T11:43:20;10.85;55.47
72772;SHT30;60894;42.544;1.516;2022-12-07T11:45:54;10.79;55.40
72772;SHT30;60894;42.544;1.516;2022-12-07T11:48:31;10.66;54.95
72772;SHT30;60894;42.544;1.516;2022-12-07T11:51:01;10.71;54.81
72772;SHT30;60894;42.544;1.516;2022-12-07T11:53:33;11.09;55.14
72772;SHT30;60894;42.544;1.516;2022-12-07T11:56:06;11.37;54.31
72772;SHT30;60894;42.544;1.516;2022-12-07T11:58:44;11.60;53.45
72772;SHT30;60894;42.544;1.516;2022-12-07T12:01:28;11.64;53.36
72772;SHT30;60894;42.544;1.516;2022-12-07T12:04:05;11.85;53.20
72772;SHT30;60894;42.544;1.516;2022-12-07T12:06:32;12.15;52.87
72772;SHT30;60894;42.544;1.516;2022-12-07T12:09:05;12.19;51.88
72772;SHT30;60894;42.544;1.516;2022-12-07T12:11:51;11.99;52.53
72772;SHT30;60894;42.544;1.516;2022-12-07T12:14:46;11.88;52.75
72772;SHT30;60894;42.544;1.516;2022-12-07T12:17:39;11.77;53.19
72772;SHT30;60894;42.544;1.516;2022-12-07T12:20:19;11.91;53.24
72772;SHT30;60894;42.544;1.516;2022-12-07T12:22:51;11.91;53.20
72772;SHT30;60894;42.544;1.516;2022-12-07T12:25:23;12.09;52.65
72772;SHT30;60894;42.544;1.516;2022-12-07T12:27:53;11.86;52.58
72772;SHT30;60894;42.544;1.516;2022-12-07T12:30:30;11.64;53.19
72772;SHT30;60894;42.544;1.516;2022-12-07T12:33:06;11.77;53.19
72772;SHT30;60894;42.544;1.516;2022-12-07T12:35:39;11.88;52.33
72772;SHT30;60894;42.544;1.516;2022-12-07T12:38:29;12.02;52.01
72772;SHT30;60894;42.544;1.516;2022-12-07T12:40:58;12.56;51.39
72772;SHT30;60894;42.544;1.516;2022-12-07T12:43:58;12.29;50.81
72772;SHT30;60894;42.544;1.516;2022-12-07T12:46:45;11.85;52.52
72772;SHT30;60894;42.544;1.516;2022-12-07T12:49:40;12.05;52.76
72772;SHT30;60894;42.544;1.516;2022-12-07T12:55:20;12.64;50.90
72772;SHT30;60894;42.544;1.516;2022-12-07T13:03:56;13.35;49.27
72772;SHT30;60894;42.544;1.516;2022-12-07T13:06:34;13.97;47.97
72772;SHT30;60894;42.544;1.516;2022-12-07T13:09:03;14.27;46.84
72772;SHT30;60894;42.544;1.516;2022-12-07T13:11:33;14.21;46.75
72772;SHT30;60894;42.544;1.516;2022-12-07T13:17:11;14.02;47.55
72772;SHT30;60894;42.544;1.516;2022-12-07T13:19:56;13.93;48.08
72772;SHT30;60894;42.544;1.516;2022-12-07T13:22:48;13.93;47.56
72772;SHT30;60894;42.544;1.516;2022-12-07T13:25:21;13.65;47.90
72772;SHT30;60894;42.544;1.516;2022-12-07T13:27:54;12.43;50.60
72772;SHT30;60894;42.544;1.516;2022-12-07T13:30:22;12.43;51.34
72772;SHT30;60894;42.544;1.516;2022-12-07T13:32:55;12.72;50.86
72772;SHT30;60894;42.544;1.516;2022-12-07T13:35:34;12.63;51.12
72772;SHT30;60894;42.544;1.516;2022-12-07T13:38:05;12.02;52.37
72772;SHT30;60894;42.544;1.516;2022-12-07T13:40:32;11.91;52.66
72772;SHT30;60894;42.544;1.516;2022-12-07T13:43:01;11.77;53.71
72772;SHT30;60894;42.544;1.516;2022-12-07T13:45:30;11.45;54.13
72772;SHT30;60894;42.544;1.516;2022-12-07T13:48:24;11.33;54.55
72772;SHT30;60894;42.544;1.516;2022-12-07T13:50:55;10.99;55.17
72772;SHT30;60894;42.544;1.516;2022-12-07T13:53:22;10.86;55.92
72772;SHT30;60894;42.544;1.516;2022-12-07T13:55:49;10.83;56.97
72772;SHT30;60894;42.544;1.516;2022-12-07T13:58:16;10.83;58.05
72772;SHT30;60894;42.544;1.516;2022-12-07T14:00:43;10.71;58.05
72772;SHT30;60894;42.544;1.516;2022-12-07T14:03:30;10.62;58.50
72772;SHT30;60894;42.544;1.516;2022-12-07T14:06:23;10.63;57.72
72772;SHT30;60894;42.544;1.516;2022-12-07T14:09:07;10.54;60.23
72772;SHT30;60894;42.544;1.516;2022-12-07T14:11:34;10.54;59.81
72772;SHT30;60894;42.544;1.516;2022-12-07T14:14:02;10.51;60.00
72772;SHT30;60894;42.544;1.516;2022-12-07T14:16:31;10.52;60.73
72772;SHT30;60894;42.544;1.516;2022-12-07T14:19:02;10.55;60.81
72772;SHT30;60894;42.544;1.516;2022-12-07T14:21:30;10.52;61.16
72772;SHT30;60894;42.544;1.516;2022-12-07T14:24:17;10.46;61.09
72772;SHT30;60894;42.544;1.516;2022-12-07T14:26:45;10.46;60.59
72772;SHT30;60894;42.544;1.516;2022-12-07T14:29:20;10.49;60.92
72772;SHT30;60894;42.544;1.516;2022-12-07T14:31:47;10.46;61.03
72772;SHT30;60894;42.544;1.516;2022-12-07T14:34:16;10.45;60.99
72772;SHT30;60894;42.544;1.516;2022-12-07T14:36:43;10.24;61.76
72772;SHT30;60894;42.544;1.516;2022-12-07T14:39:10;10.25;60.98
72772;SHT30;60894;42.544;1.516;2022-12-07T14:41:37;10.30;61.36
72772;SHT30;60894;42.544;1.516;2022-12-07T14:44:20;10.24;60.96
72772;SHT30;60894;42.544;1.516;2022-12-07T14:46:47;10.22;61.25
72772;SHT30;60894;42.544;1.516;2022-12-07T14:49:16;10.32;61.81
72772;SHT30;60894;42.544;1.516;2022-12-07T14:51:44;10.28;61.90
72772;SHT30;60894;42.544;1.516;2022-12-07T14:54:15;10.27;62.86
72772;SHT30;60894;42.544;1.516;2022-12-07T14:56:43;10.31;62.34
72772;SHT30;60894;42.544;1.516;2022-12-07T14:59:11;10.30;62.59
72772;SHT30;60894;42.544;1.516;2022-12-07T15:01:39;10.28;62.31
72772;SHT30;60894;42.544;1.516;2022-12-07T15:04:06;10.35;61.46
72772;SHT30;60894;42.544;1.516;2022-12-07T15:06:34;10.41;61.88
72772;SHT30;60894;42.544;1.516;2022-12-07T15:09:02;10.31;63.00
72772;SHT30;60894;42.544;1.516;2022-12-07T15:11:31;10.31;62.82
72772;SHT30;60894;42.544;1.516;2022-12-07T15:13:58;10.24;61.91
72772;SHT30;60894;42.544;1.516;2022-12-07T15:16:38;10.07;61.80
72772;SHT30;60894;42.544;1.516;2022-12-07T15:19:11;9.95;62.03
72772;SHT30;60894;42.544;1.516;2022-12-07T15:21:40;9.93;62.01
72772;SHT30;60894;42.544;1.516;2022-12-07T15:24:09;9.82;62.50
72772;SHT30;60894;42.544;1.516;2022-12-07T15:26:37;9.74;63.04
72772;SHT30;60894;42.544;1.516;2022-12-07T15:29:04;9.69;64.27
72772;SHT30;60894;42.544;1.516;2022-12-07T15:31:32;9.44;64.65
72772;SHT30;60894;42.544;1.516;2022-12-07T15:33:59;9.38;64.42
72772;SHT30;60894;42.544;1.516;2022-12-07T15:36:27;9.33;64.12
72772;SHT30;60894;42.544;1.516;2022-12-07T15:38:56;9.26;64.63
72772;SHT30;60894;42.544;1.516;2022-12-07T15:41:23;9.22;65.80
72772;SHT30;60894;42.544;1.516;2022-12-07T15:43:51;9.21;66.45
72772;SHT30;60894;42.544;1.516;2022-12-07T15:46:37;9.26;67.32
72772;SHT30;60894;42.544;1.516;2022-12-07T15:49:06;9.18;68.49
72772;SHT30;60894;42.544;1.516;2022-12-07T15:51:35;9.15;68.20
72772;SHT30;60894;42.544;1.516;2022-12-07T15:54:03;9.10;67.24
72772;SHT30;60894;42.544;1.516;2022-12-07T15:56:30;9.21;66.90
72772;SHT30;60894;42.544;1.516;2022-12-07T15:58:57;8.98;67.52
72772;SHT30;60894;42.544;1.516;2022-12-07T16:01:24;8.92;68.07
72772;SHT30;60894;42.544;1.516;2022-12-07T16:03:51;8.88;68.07
72772;SHT30;60894;42.544;1.516;2022-12-07T16:06:18;8.97;67.78
72772;SHT30;60894;42.544;1.516;2022-12-07T16:08:46;8.98;68.36
72772;SHT30;60894;42.544;1.516;2022-12-07T16:11:14;8.88;68.93
72772;SHT30;60894;42.544;1.516;2022-12-07T16:13:41;8.80;69.07
72772;SHT30;60894;42.544;1.516;2022-12-07T16:16:11;8.70;69.62
72772;SHT30;60894;42.544;1.516;2022-12-07T16:18:38;8.60;69.93
72772;SHT30;60894;42.544;1.516;2022-12-07T16:21:05;8.51;69.93
72772;SHT30;60894;42.544;1.516;2022-12-07T16:23:33;8.50;70.36